This is the latest recevied weather packets stored in our database for station/object SR9WXP. If no packets are shown the sender has not sent any weather packets the latest 1 day(s).
| Time | Temp. | Humidity | Pressure | Rain* | Wind** | Luminosity | Snow |
|---|---|---|---|---|---|---|---|
| 1836274723 | 11.11° C | 88% | 866.9 hPa | - | 1.79 m/s, 173° | - | - |
| 1836274662 | 11.11° C | 88% | 866.9 hPa | - | 1.79 m/s, 169° | - | - |
| 1836274570 | 12.22° C | 89% | 866.8 hPa | - | 1.34 m/s, 183° | - | - |
| 1836274544 | 10.56° C | 88% | 866.9 hPa | - | 2.24 m/s, 171° | - | - |
| 1836274513 | 12.22° C | 89% | 866.7 hPa | - | 1.34 m/s, 187° | - | - |
| 1836274420 | 10.56° C | 88% | 866.9 hPa | - | 2.24 m/s, 173° | - | - |
| 1836274393 | 12.22° C | 88% | 866.8 hPa | - | 1.34 m/s, 186° | - | - |
| 1836274302 | 10.56° C | 88% | 866.9 hPa | - | 2.24 m/s, 173° | - | - |
| 1836274270 | 12.22° C | 88% | 866.8 hPa | - | 1.34 m/s, 187° | - | - |
| 1836274182 | 10.56° C | 88% | 866.9 hPa | - | 2.24 m/s, 173° | - | - |
| 1836274153 | 11.67° C | 88% | 866.8 hPa | - | 1.34 m/s, 181° | - | - |
| 1836274120 | 10.56° C | 88% | 866.9 hPa | - | 2.24 m/s, 174° | - | - |
| 1836274063 | 10.56° C | 89% | 866.9 hPa | - | 2.24 m/s, 175° | - | - |
| 1836273943 | 10.56° C | 89% | 866.9 hPa | - | 2.24 m/s, 176° | - | - |
| 1778026851 | 7.78° C | 63% | 847.9 hPa | - | 6.71 m/s, 177° | - | - |
| 1778026728 | 7.78° C | 63% | 847.9 hPa | - | 5.81 m/s, 178° | - | - |
| 1778026609 | 7.78° C | 63% | 847.9 hPa | - | 6.26 m/s, 176° | - | - |
| 1778026488 | 7.78° C | 63% | 847.8 hPa | - | 5.81 m/s, 182° | - | - |
| 1778026427 | 7.78° C | 63% | 847.8 hPa | - | 5.36 m/s, 178° | - | - |
| 1778026366 | 7.78° C | 63% | 847.8 hPa | - | 5.81 m/s, 171° | - | - |
| 1778026246 | 7.78° C | 63% | 847.9 hPa | - | 5.81 m/s, 174° | - | - |
| 1778026133 | 7.78° C | 63% | 847.9 hPa | - | 5.81 m/s, 170° | - | - |
| 1778026004 | 7.78° C | 63% | 847.9 hPa | - | 6.26 m/s, 174° | - | - |
| 1778025884 | 7.78° C | 63% | 847.9 hPa | - | 6.71 m/s, 176° | - | - |
| 1778025822 | 7.78° C | 63% | 847.9 hPa | - | 6.71 m/s, 172° | - | - |
* Rain since midnight (hover to see other rain measurements)
** Current wind speed in m/s (hover to see current wind gust speed)